createdAt,value
2024-04-23T00:01:41.048Z,83.46
2024-04-23T00:04:08.038Z,83.63
2024-04-23T00:06:34.719Z,84.06
2024-04-23T00:09:01.325Z,84.28
2024-04-23T00:11:30.008Z,84.57
2024-04-23T00:13:56.732Z,84.94
2024-04-23T00:16:23.456Z,85.28
2024-04-23T00:18:50.786Z,85.30
2024-04-23T00:21:17.449Z,85.82
2024-04-23T00:23:45.502Z,86.18
2024-04-23T00:26:12.112Z,86.49
2024-04-23T00:28:38.765Z,86.41
2024-04-23T00:31:05.356Z,86.58
2024-04-23T00:33:32.026Z,87.07
2024-04-23T00:35:58.603Z,87.26
2024-04-23T00:38:25.221Z,87.37
2024-04-23T00:40:51.863Z,87.49
2024-04-23T00:43:18.472Z,87.85
2024-04-23T00:45:48.870Z,88.01
2024-04-23T00:48:17.478Z,88.72
2024-04-23T00:50:47.502Z,88.80
2024-04-23T00:53:17.174Z,88.96
2024-04-23T00:55:43.926Z,89.56
2024-04-23T00:58:16.161Z,89.39
2024-04-23T01:00:43.131Z,90.29
2024-04-23T01:03:10.152Z,90.45
2024-04-23T01:05:37.061Z,90.70
2024-04-23T01:08:03.774Z,91.21
2024-04-23T01:10:30.767Z,91.39
2024-04-23T01:12:57.553Z,91.33
2024-04-23T01:15:27.139Z,92.18
2024-04-23T01:17:57.916Z,92.53
2024-04-23T01:20:28.325Z,92.69
2024-04-23T01:23:11.889Z,93.16
2024-04-23T01:25:41.793Z,93.55
2024-04-23T01:28:11.163Z,93.64
2024-04-23T01:30:37.913Z,93.79
2024-04-23T01:33:08.073Z,93.89
2024-04-23T01:35:38.455Z,94.15
2024-04-23T01:38:06.161Z,94.81
2024-04-23T01:40:35.358Z,94.79
2024-04-23T01:43:03.636Z,95.47
2024-04-23T01:45:31.979Z,95.30
2024-04-23T01:47:58.770Z,95.43
2024-04-23T01:50:25.515Z,95.85
2024-04-23T01:52:52.564Z,96.05
2024-04-23T01:55:20.402Z,96.27
2024-04-23T01:57:47.490Z,96.76
2024-04-23T02:00:23.597Z,96.92
2024-04-23T02:02:55.883Z,97.19
2024-04-23T02:05:26.241Z,97.38
2024-04-23T02:07:57.632Z,97.31
2024-04-23T02:10:26.774Z,97.70
2024-04-23T02:12:53.627Z,97.75
2024-04-23T02:15:22.456Z,97.83
2024-04-23T02:17:50.602Z,98.25
2024-04-23T02:20:17.589Z,98.42
2024-04-23T02:22:44.246Z,98.94
2024-04-23T02:25:10.878Z,98.88
2024-04-23T02:27:37.605Z,99.29
2024-04-23T02:30:04.878Z,99.47
2024-04-23T02:32:31.910Z,99.95
2024-04-23T02:35:00.088Z,100.00
2024-04-23T02:37:29.031Z,100.00
2024-04-23T02:39:55.612Z,100.00
2024-04-23T02:42:22.329Z,100.00
2024-04-23T02:44:49.229Z,100.00
2024-04-23T02:47:24.916Z,100.00
2024-04-23T02:49:51.539Z,100.00
2024-04-23T02:52:19.453Z,100.00
2024-04-23T02:54:48.862Z,100.00
2024-04-23T02:57:15.610Z,100.00
2024-04-23T02:59:42.169Z,100.00
2024-04-23T03:02:12.010Z,100.00
2024-04-23T03:04:38.766Z,100.00
2024-04-23T03:07:05.482Z,100.00
2024-04-23T03:09:32.292Z,100.00
2024-04-23T03:11:58.890Z,100.00
2024-04-23T03:14:25.533Z,100.00
2024-04-23T03:16:52.792Z,100.00
2024-04-23T03:19:22.347Z,100.00
2024-04-23T03:21:56.258Z,100.00
2024-04-23T03:24:25.692Z,100.00
2024-04-23T03:26:52.699Z,100.00
2024-04-23T03:29:20.035Z,100.00
2024-04-23T03:31:48.310Z,100.00
2024-04-23T03:34:15.054Z,100.00
2024-04-23T03:36:44.894Z,100.00
2024-04-23T03:39:11.777Z,100.00
2024-04-23T03:41:38.344Z,100.00
2024-04-23T03:44:05.196Z,100.00
2024-04-23T03:46:31.864Z,100.00
2024-04-23T03:48:58.491Z,100.00
2024-04-23T03:51:25.238Z,100.00
2024-04-23T03:53:51.841Z,100.00
2024-04-23T03:56:20.182Z,100.00
2024-04-23T03:59:44.751Z,100.00
2024-04-23T04:03:21.557Z,100.00
2024-04-23T04:06:05.733Z,100.00
2024-04-23T04:08:58.176Z,100.00
2024-04-23T04:12:18.108Z,100.00
2024-04-23T04:19:17.218Z,100.00
2024-04-23T04:21:43.831Z,100.00
2024-04-23T04:24:10.448Z,100.00
2024-04-23T04:26:37.025Z,100.00
2024-04-23T04:29:03.892Z,100.00
2024-04-23T04:31:30.594Z,100.00
2024-04-23T04:33:58.282Z,100.00
2024-04-23T04:36:24.911Z,100.00
2024-04-23T04:38:54.331Z,100.00
2024-04-23T04:41:22.701Z,100.00
2024-04-23T04:43:52.993Z,100.00
2024-04-23T04:46:19.961Z,100.00
2024-04-23T04:48:49.311Z,100.00
2024-04-23T04:51:16.028Z,100.00
2024-04-23T04:53:42.752Z,100.00
2024-04-23T04:56:09.353Z,100.00
2024-04-23T04:58:43.313Z,100.00
2024-04-23T05:01:14.108Z,100.00
2024-04-23T05:03:40.800Z,100.00
2024-04-23T05:06:11.807Z,100.00
2024-04-23T05:08:38.369Z,100.00
2024-04-23T05:11:12.464Z,100.00
2024-04-23T05:13:39.227Z,100.00
2024-04-23T05:16:06.129Z,100.00
2024-04-23T05:18:34.444Z,100.00
2024-04-23T05:21:02.752Z,100.00
2024-04-23T05:23:29.472Z,100.00
2024-04-23T05:25:56.234Z,100.00
2024-04-23T05:28:22.867Z,100.00
2024-04-23T05:31:13.685Z,100.00
2024-04-23T05:33:40.348Z,100.00
2024-04-23T05:36:07.270Z,100.00
2024-04-23T05:38:34.123Z,100.00
2024-04-23T05:41:00.971Z,100.00
2024-04-23T05:43:27.867Z,100.00
2024-04-23T05:45:54.486Z,100.00
2024-04-23T05:48:58.933Z,100.00
2024-04-23T05:52:29.684Z,100.00
2024-04-23T05:55:32.781Z,100.00
2024-04-23T05:57:59.880Z,100.00
2024-04-23T06:00:27.803Z,100.00
2024-04-23T06:02:56.895Z,100.00
2024-04-23T06:05:24.762Z,100.00
2024-04-23T06:07:52.014Z,100.00
2024-04-23T06:10:19.204Z,100.00
2024-04-23T06:12:51.290Z,100.00
2024-04-23T06:15:19.620Z,100.00
2024-04-23T06:17:48.302Z,100.00
2024-04-23T06:20:16.109Z,100.00
2024-04-23T06:22:43.902Z,100.00
2024-04-23T06:25:11.585Z,100.00
2024-04-23T06:27:42.272Z,100.00
2024-04-23T06:30:12.812Z,100.00
2024-04-23T06:32:57.128Z,100.00
2024-04-23T06:35:24.986Z,100.00
2024-04-23T06:37:51.594Z,100.00
2024-04-23T06:40:19.322Z,100.00
2024-04-23T06:42:46.389Z,100.00
2024-04-23T06:45:12.980Z,96.25
2024-04-23T06:47:53.615Z,94.06
2024-04-23T06:50:20.901Z,92.40
2024-04-23T06:52:50.679Z,93.37
2024-04-23T06:55:17.535Z,93.17
2024-04-23T06:57:44.748Z,93.77
2024-04-23T07:00:11.631Z,94.51
2024-04-23T07:02:38.289Z,94.53
2024-04-23T07:05:05.854Z,94.60
2024-04-23T07:07:32.797Z,93.86
2024-04-23T07:09:59.463Z,93.65
2024-04-23T07:12:26.022Z,93.71
2024-04-23T07:14:52.641Z,92.50
2024-04-23T07:17:20.320Z,92.04
2024-04-23T07:19:48.694Z,91.26
2024-04-23T07:22:17.920Z,89.75
2024-04-23T07:24:44.507Z,86.66
2024-04-23T07:27:11.101Z,82.61
2024-04-23T07:29:37.671Z,77.37
2024-04-23T07:32:04.556Z,71.64
2024-04-23T07:34:31.149Z,71.85
2024-04-23T07:36:57.757Z,68.09
2024-04-23T07:39:24.446Z,67.48
2024-04-23T07:41:51.048Z,64.98
2024-04-23T07:44:17.655Z,65.64
2024-04-23T07:46:44.609Z,59.83
2024-04-23T07:49:11.623Z,60.38
2024-04-23T07:51:40.118Z,60.44
2024-04-23T07:54:06.918Z,58.72
2024-04-23T07:56:35.991Z,56.79
2024-04-23T07:59:02.662Z,56.25
2024-04-23T08:01:29.395Z,52.53
2024-04-23T08:03:56.081Z,51.53
2024-04-23T08:06:24.965Z,49.45
2024-04-23T08:08:54.602Z,48.37
2024-04-23T08:11:24.506Z,46.70
2024-04-23T08:13:51.568Z,47.34
2024-04-23T08:16:18.188Z,49.36
2024-04-23T08:18:44.863Z,51.40
2024-04-23T08:21:15.061Z,49.18
2024-04-23T08:23:44.373Z,50.70
2024-04-23T08:26:16.756Z,49.02
2024-04-23T08:28:47.964Z,50.87
2024-04-23T08:31:19.334Z,49.50
2024-04-23T08:33:50.409Z,50.49
2024-04-23T08:36:19.386Z,47.29
2024-04-23T08:38:46.386Z,46.86
2024-04-23T08:41:17.941Z,45.79
2024-04-23T08:44:03.997Z,49.27
2024-04-23T08:46:31.509Z,49.21
2024-04-23T08:48:59.635Z,48.93
2024-04-23T08:51:26.887Z,49.85
2024-04-23T08:53:54.993Z,47.94
2024-04-23T08:56:24.151Z,47.00
2024-04-23T08:58:57.492Z,44.11
2024-04-23T09:01:40.352Z,46.32
2024-04-23T09:04:11.724Z,43.34
2024-04-23T09:07:25.060Z,43.87
2024-04-23T09:10:13.321Z,42.70
2024-04-23T09:13:05.255Z,40.48
2024-04-23T09:15:32.036Z,40.64
2024-04-23T09:20:48.449Z,40.18
2024-04-23T09:21:15.486Z,41.76
2024-04-23T09:23:45.676Z,41.84
2024-04-23T09:26:12.949Z,42.53
2024-04-23T09:28:48.693Z,43.97
2024-04-23T09:31:24.620Z,42.32
2024-04-23T09:33:57.952Z,41.56
2024-04-23T09:36:33.330Z,41.20
2024-04-23T09:39:00.452Z,37.25
2024-04-23T09:41:32.633Z,40.01
2024-04-23T09:44:00.872Z,38.57
2024-04-23T09:46:34.065Z,37.46
2024-04-23T09:49:11.148Z,37.54
2024-04-23T09:51:41.655Z,37.03
2024-04-23T09:54:08.338Z,37.86
2024-04-23T09:56:36.165Z,37.30
2024-04-23T09:59:02.853Z,36.84
2024-04-23T10:01:29.992Z,34.67
2024-04-23T10:04:04.941Z,36.66
2024-04-23T10:06:39.292Z,32.83
2024-04-23T10:09:21.422Z,36.22
2024-04-23T10:12:50.926Z,36.76
2024-04-23T10:15:44.019Z,36.76
2024-04-23T10:18:26.024Z,36.52
2024-04-23T10:21:25.327Z,38.14
2024-04-23T10:23:57.694Z,35.90
2024-04-23T10:26:24.945Z,33.41
2024-04-23T10:28:53.978Z,32.49
2024-04-23T10:31:22.531Z,34.23
2024-04-23T10:33:51.956Z,32.52
2024-04-23T10:36:19.727Z,36.45
2024-04-23T10:38:51.006Z,31.73
2024-04-23T10:41:23.664Z,36.27
2024-04-23T10:43:54.690Z,35.26
2024-04-23T10:46:21.720Z,36.34
2024-04-23T10:48:58.278Z,37.94
2024-04-23T10:51:26.730Z,37.50
2024-04-23T10:53:53.687Z,37.12
2024-04-23T10:56:25.319Z,36.31
2024-04-23T10:59:02.736Z,37.56
2024-04-23T11:01:29.569Z,36.57
2024-04-23T11:03:58.028Z,33.31
2024-04-23T11:06:37.272Z,33.00
2024-04-23T11:09:22.230Z,33.27
2024-04-23T11:11:51.993Z,34.71
2024-04-23T11:14:18.839Z,33.04
2024-04-23T11:16:46.800Z,30.69
2024-04-23T11:19:25.886Z,32.24
2024-04-23T11:21:56.449Z,34.88
2024-04-23T11:24:25.464Z,36.10
2024-04-23T11:26:55.689Z,39.16
2024-04-23T11:29:23.528Z,38.25
2024-04-23T11:31:54.257Z,36.89
2024-04-23T11:34:22.654Z,37.86
2024-04-23T11:36:51.173Z,36.60
2024-04-23T11:39:28.218Z,36.44
2024-04-23T11:41:57.372Z,35.56
2024-04-23T11:44:23.985Z,38.62
2024-04-23T11:46:50.810Z,37.93
2024-04-23T11:49:18.397Z,38.58
2024-04-23T11:51:46.552Z,40.89
2024-04-23T11:54:16.135Z,40.77
2024-04-23T11:56:43.061Z,39.93
2024-04-23T11:59:10.682Z,40.14
2024-04-23T12:01:41.962Z,40.44
2024-04-23T12:04:10.597Z,40.41
2024-04-23T12:06:46.841Z,40.54
2024-04-23T12:09:17.606Z,38.79
2024-04-23T12:11:48.548Z,39.50
2024-04-23T12:14:15.270Z,40.03
2024-04-23T12:16:43.792Z,40.07
2024-04-23T12:19:13.246Z,40.26
2024-04-23T12:21:41.496Z,40.89
2024-04-23T12:24:14.320Z,39.86
2024-04-23T12:26:41.179Z,38.92
2024-04-23T12:29:10.414Z,38.13
2024-04-23T12:31:40.886Z,38.64
2024-04-23T12:34:07.535Z,37.69
2024-04-23T12:36:36.705Z,37.91
2024-04-23T12:39:14.167Z,38.98
2024-04-23T12:41:40.940Z,37.66
2024-04-23T12:44:18.043Z,38.45
2024-04-23T12:46:45.153Z,36.73
2024-04-23T12:49:12.726Z,36.71
2024-04-23T12:51:39.563Z,36.27
2024-04-23T12:54:10.252Z,38.97
2024-04-23T12:56:37.220Z,36.22
2024-04-23T12:59:05.521Z,36.39
2024-04-23T13:01:41.767Z,35.04
2024-04-23T13:04:12.128Z,36.05
2024-04-23T13:06:39.440Z,35.66
2024-04-23T13:09:06.942Z,34.65
2024-04-23T13:11:33.682Z,36.39
2024-04-23T13:14:00.635Z,36.31
2024-04-23T13:16:38.999Z,36.93
2024-04-23T13:19:12.907Z,35.67
2024-04-23T13:21:39.675Z,36.41
2024-04-23T13:24:06.603Z,37.99
2024-04-23T13:26:33.704Z,36.51
2024-04-23T13:29:00.978Z,34.73
2024-04-23T13:31:27.667Z,36.99
2024-04-23T13:33:56.956Z,36.47
2024-04-23T13:36:29.534Z,35.80
2024-04-23T13:39:10.966Z,34.65
2024-04-23T13:41:37.693Z,36.03
2024-04-23T13:44:08.788Z,36.21
2024-04-23T13:46:39.666Z,35.78
2024-04-23T13:49:08.306Z,37.75
2024-04-23T13:51:34.923Z,36.44
2024-04-23T13:54:01.641Z,36.85
2024-04-23T13:56:28.343Z,36.60
2024-04-23T13:58:55.064Z,36.87
2024-04-23T14:01:21.857Z,36.23
2024-04-23T14:03:48.661Z,34.49
2024-04-23T14:06:16.362Z,35.44
2024-04-23T14:08:43.298Z,35.88
2024-04-23T14:11:10.158Z,37.24
2024-04-23T14:13:37.554Z,36.71
2024-04-23T14:16:11.309Z,36.66
2024-04-23T14:18:44.070Z,36.66
2024-04-23T14:21:12.143Z,36.72
2024-04-23T14:23:39.583Z,39.23
2024-04-23T14:26:06.623Z,37.58
2024-04-23T14:28:35.616Z,36.78
2024-04-23T14:31:05.356Z,38.06
2024-04-23T14:33:32.448Z,37.54
2024-04-23T14:36:05.715Z,37.94
2024-04-23T14:38:35.605Z,37.69
2024-04-23T14:41:11.499Z,38.59
2024-04-23T14:43:38.218Z,38.61
2024-04-23T14:46:12.840Z,38.21
2024-04-23T14:48:40.104Z,38.14
2024-04-23T14:51:08.174Z,37.95
2024-04-23T14:53:37.993Z,39.10
2024-04-23T14:56:05.926Z,39.48
2024-04-23T14:58:36.142Z,38.89
2024-04-23T15:01:20.714Z,39.55
2024-04-23T15:03:55.138Z,38.50
2024-04-23T15:06:25.791Z,39.42
2024-04-23T15:08:53.642Z,40.19
2024-04-23T15:11:20.323Z,39.20
2024-04-23T15:13:50.006Z,38.72
2024-04-23T15:16:16.995Z,39.30
2024-04-23T15:18:44.252Z,40.80
2024-04-23T15:21:15.617Z,42.58
2024-04-23T15:23:45.054Z,45.04
2024-04-23T15:26:11.974Z,44.88
2024-04-23T15:28:43.538Z,45.79
2024-04-23T15:31:10.516Z,46.15
2024-04-23T15:33:42.048Z,47.06
2024-04-23T15:36:17.212Z,47.79
2024-04-23T15:38:54.826Z,49.14
2024-04-23T15:41:21.501Z,50.96
2024-04-23T15:43:51.472Z,51.20
2024-04-23T15:46:18.500Z,51.72
2024-04-23T15:48:47.973Z,51.15
2024-04-23T15:51:14.926Z,50.28
2024-04-23T15:53:41.557Z,52.11
2024-04-23T15:56:11.368Z,53.10
2024-04-23T15:58:39.032Z,54.70
2024-04-23T16:01:07.788Z,56.78
2024-04-23T16:03:36.061Z,57.45
2024-04-23T16:06:06.724Z,59.08
2024-04-23T16:08:34.047Z,57.88
2024-04-23T16:11:04.621Z,58.86
2024-04-23T16:13:32.452Z,58.55
2024-04-23T16:16:00.092Z,59.66
2024-04-23T16:18:31.005Z,59.90
2024-04-23T16:21:07.554Z,60.11
2024-04-23T16:23:34.988Z,60.90
2024-04-23T16:26:03.025Z,61.35
2024-04-23T16:28:29.720Z,62.68
2024-04-23T16:31:04.234Z,63.91
2024-04-23T16:33:40.249Z,65.74
2024-04-23T16:36:09.082Z,66.54
2024-04-23T16:38:39.603Z,66.25
2024-04-23T16:41:10.030Z,65.57
2024-04-23T16:43:37.465Z,66.43
2024-04-23T16:46:10.691Z,66.63
2024-04-23T16:48:40.202Z,67.38
2024-04-23T16:51:09.589Z,68.27
2024-04-23T16:53:37.699Z,68.17
2024-04-23T16:56:05.064Z,68.30
2024-04-23T16:58:31.981Z,68.21
2024-04-23T17:00:58.661Z,68.21
2024-04-23T17:03:25.454Z,68.94
2024-04-23T17:05:57.053Z,69.44
2024-04-23T17:08:24.555Z,69.04
2024-04-23T17:10:51.902Z,69.78
2024-04-23T17:13:21.619Z,69.90
2024-04-23T17:15:48.469Z,70.67
2024-04-23T17:18:15.259Z,70.45
2024-04-23T17:20:43.052Z,70.67
2024-04-23T17:23:09.834Z,71.57
2024-04-23T17:25:37.821Z,71.02
2024-04-23T17:28:06.227Z,71.26
2024-04-23T17:30:33.070Z,71.27
2024-04-23T17:32:59.840Z,72.10
2024-04-23T17:35:29.259Z,72.84
2024-04-23T17:37:56.084Z,73.05
2024-04-23T17:40:25.083Z,73.50
2024-04-23T17:42:52.336Z,74.46
2024-04-23T17:45:20.474Z,74.28
2024-04-23T17:47:48.600Z,74.58
2024-04-23T17:50:16.658Z,75.53
2024-04-23T17:52:55.479Z,75.93
2024-04-23T17:55:28.870Z,75.64
2024-04-23T17:57:56.561Z,76.50
2024-04-23T18:00:27.390Z,76.70
2024-04-23T18:02:56.547Z,78.21
2024-04-23T18:05:24.929Z,79.48
2024-04-23T18:07:55.113Z,79.02
2024-04-23T18:10:27.677Z,81.67
2024-04-23T18:12:58.383Z,83.80
2024-04-23T18:15:26.102Z,85.34
2024-04-23T18:17:56.353Z,86.75
2024-04-23T18:20:24.367Z,88.83
2024-04-23T18:22:51.035Z,89.69
2024-04-23T18:25:20.432Z,91.92
2024-04-23T18:27:47.421Z,91.93
2024-04-23T18:30:16.301Z,94.97
2024-04-23T18:32:43.168Z,95.59
2024-04-23T18:35:12.143Z,96.09
2024-04-23T18:37:43.071Z,97.08
2024-04-23T18:40:13.132Z,98.76
2024-04-23T18:42:42.331Z,99.27
2024-04-23T18:45:09.147Z,99.82
2024-04-23T18:47:36.562Z,100.00
2024-04-23T18:50:06.127Z,100.00
2024-04-23T18:52:33.895Z,100.00
2024-04-23T18:55:01.768Z,100.00
2024-04-23T18:57:28.538Z,100.00
2024-04-23T18:59:55.174Z,100.00
2024-04-23T19:02:23.643Z,100.00
2024-04-23T19:04:50.565Z,100.00
2024-04-23T19:07:17.457Z,100.00
2024-04-23T19:09:49.011Z,100.00
2024-04-23T19:12:17.510Z,100.00
2024-04-23T19:14:45.591Z,100.00
2024-04-23T19:17:13.217Z,100.00
2024-04-23T19:19:39.849Z,100.00
2024-04-23T19:22:06.537Z,100.00
2024-04-23T19:24:33.176Z,100.00
2024-04-23T19:26:59.792Z,100.00
2024-04-23T19:29:26.523Z,100.00
2024-04-23T19:31:53.468Z,100.00
2024-04-23T19:34:20.648Z,100.00
2024-04-23T19:36:47.778Z,100.00
2024-04-23T19:39:15.037Z,100.00
2024-04-23T19:41:42.144Z,100.00
2024-04-23T19:44:10.549Z,100.00
2024-04-23T19:46:41.990Z,100.00
2024-04-23T19:49:09.345Z,100.00
2024-04-23T19:51:35.997Z,100.00
2024-04-23T19:54:05.871Z,100.00
2024-04-23T19:56:54.631Z,100.00
2024-04-23T19:59:23.344Z,100.00
2024-04-23T20:01:50.359Z,100.00
2024-04-23T20:04:18.152Z,100.00
2024-04-23T20:06:48.947Z,100.00
2024-04-23T20:13:08.607Z,100.00
2024-04-23T20:16:01.419Z,100.00
2024-04-23T20:18:30.525Z,100.00
2024-04-23T20:21:00.154Z,100.00
2024-04-23T20:23:28.393Z,100.00
2024-04-23T20:25:54.975Z,100.00
2024-04-23T20:28:23.108Z,100.00
2024-04-23T20:30:49.691Z,100.00
2024-04-23T20:33:16.348Z,100.00
2024-04-23T20:35:43.008Z,100.00
2024-04-23T20:38:09.907Z,100.00
2024-04-23T20:40:36.916Z,100.00
2024-04-23T20:43:03.617Z,100.00
2024-04-23T20:45:30.918Z,100.00
2024-04-23T20:47:57.717Z,100.00
2024-04-23T20:50:24.472Z,100.00
2024-04-23T20:52:51.154Z,100.00
2024-04-23T20:55:17.801Z,100.00
2024-04-23T20:57:47.199Z,100.00
2024-04-23T21:00:14.166Z,100.00
2024-04-23T21:02:41.200Z,100.00
2024-04-23T21:05:07.883Z,100.00
2024-04-23T21:07:34.602Z,100.00
2024-04-23T21:10:01.574Z,100.00
2024-04-23T21:12:31.234Z,100.00
2024-04-23T21:14:57.796Z,100.00
2024-04-23T21:17:26.232Z,100.00
2024-04-23T21:19:52.952Z,100.00
2024-04-23T21:22:21.288Z,100.00
2024-04-23T21:24:47.885Z,100.00
2024-04-23T21:27:15.343Z,100.00
2024-04-23T21:29:42.970Z,100.00
2024-04-23T21:32:09.668Z,100.00
2024-04-23T21:34:36.317Z,100.00
2024-04-23T21:37:02.965Z,100.00
2024-04-23T21:39:29.606Z,100.00
2024-04-23T21:41:58.205Z,100.00
2024-04-23T21:44:26.189Z,100.00
2024-04-23T21:46:52.901Z,100.00
2024-04-23T21:49:20.110Z,100.00
2024-04-23T21:52:09.410Z,100.00
2024-04-23T21:54:38.425Z,100.00
2024-04-23T21:57:05.137Z,100.00
2024-04-23T21:59:32.581Z,100.00
2024-04-23T22:01:59.250Z,100.00
2024-04-23T22:04:25.936Z,100.00
2024-04-23T22:06:54.752Z,100.00
2024-04-23T22:09:22.159Z,100.00
2024-04-23T22:11:48.946Z,100.00
2024-04-23T22:14:15.643Z,100.00
2024-04-23T22:16:45.725Z,100.00
2024-04-23T22:19:14.528Z,100.00
2024-04-23T22:21:42.255Z,100.00
2024-04-23T22:24:15.065Z,100.00
2024-04-23T22:26:41.688Z,100.00
2024-04-23T22:29:08.301Z,100.00
2024-04-23T22:31:35.041Z,100.00
2024-04-23T22:34:01.639Z,100.00
2024-04-23T22:36:29.768Z,100.00
2024-04-23T22:38:58.903Z,100.00
2024-04-23T22:41:25.676Z,100.00
2024-04-23T22:43:54.502Z,100.00
2024-04-23T22:46:21.259Z,100.00
2024-04-23T22:48:47.903Z,100.00
2024-04-23T22:51:15.674Z,100.00
2024-04-23T22:53:42.326Z,100.00
2024-04-23T22:56:08.911Z,100.00
2024-04-23T22:58:35.542Z,100.00
2024-04-23T23:01:02.153Z,100.00
2024-04-23T23:03:28.846Z,100.00
2024-04-23T23:05:55.453Z,100.00
2024-04-23T23:08:22.092Z,100.00
2024-04-23T23:10:48.796Z,100.00
2024-04-23T23:13:17.966Z,100.00
2024-04-23T23:15:46.879Z,100.00
2024-04-23T23:18:13.572Z,100.00
2024-04-23T23:20:40.140Z,100.00
2024-04-23T23:23:06.793Z,100.00
2024-04-23T23:25:33.403Z,100.00
2024-04-23T23:28:00.016Z,100.00
2024-04-23T23:30:26.608Z,100.00
2024-04-23T23:32:54.271Z,100.00
2024-04-23T23:35:20.956Z,100.00
2024-04-23T23:37:47.592Z,100.00
2024-04-23T23:40:14.270Z,100.00
2024-04-23T23:42:40.882Z,100.00
2024-04-23T23:45:10.426Z,100.00
2024-04-23T23:47:37.546Z,100.00
2024-04-23T23:50:04.702Z,100.00
2024-04-23T23:52:34.097Z,100.00
2024-04-23T23:55:03.679Z,100.00
2024-04-23T23:57:30.343Z,100.00
2024-04-23T23:59:59.477Z,100.00
